Time;durP1;ratioP1;P1;durP2;ratioP2;P2;SDS_P1;SDS_P2;PMS_P1;PMS_P2;Temp;Humidity;BMP_temperature;BMP_pressure;BME280_temperature;BME280_humidity;BME280_pressure;Samples;Min_cycle;Max_cycle;Signal;HPM_P1;HPM_P2
2022/03/12 00:00:56;;;;;;;16.83;10.85;;;;;;;;;;5012771;28;94384;-70
2022/03/12 00:03:23;;;;;;;11.88;10.55;;;;;;;;;;5015026;28;95091;-70
2022/03/12 00:05:53;;;;;;;16.85;10.48;;;;;;;;;;5012037;28;92694;-70
2022/03/12 00:08:21;;;;;;;16.02;10.82;;;;;;;;;;5011918;28;94450;-70
2022/03/12 00:10:50;;;;;;;16.88;10.80;;;;;;;;;;5012113;28;92496;-70
2022/03/12 00:13:19;;;;;;;13.95;10.48;;;;;;;;;;5012788;28;94204;-70
2022/03/12 00:15:52;;;;;;;24.77;10.57;;;;;;;;;;5013068;28;94335;-69
2022/03/12 00:18:20;;;;;;;10.90;9.65;;;;;;;;;;5012977;28;93196;-69
2022/03/12 00:20:48;;;;;;;11.02;9.38;;;;;;;;;;5011180;28;95640;-69
2022/03/12 00:23:20;;;;;;;17.00;10.52;;;;;;;;;;5008656;28;93180;-70
2022/03/12 00:25:48;;;;;;;15.90;10.90;;;;;;;;;;5014205;28;93376;-70
2022/03/12 00:28:16;;;;;;;16.58;9.50;;;;;;;;;;5012252;28;93382;-69
2022/03/12 00:30:49;;;;;;;13.98;9.95;;;;;;;;;;5015084;28;92512;-69
2022/03/12 00:33:21;;;;;;;18.38;10.70;;;;;;;;;;5013469;28;94606;-69
2022/03/12 00:35:48;;;;;;;12.90;10.82;;;;;;;;;;5011840;28;94365;-69
2022/03/12 00:38:15;;;;;;;18.17;11.30;;;;;;;;;;5013116;28;91708;-69
2022/03/12 00:40:42;;;;;;;14.60;10.75;;;;;;;;;;5012188;28;92465;-69
2022/03/12 00:43:11;;;;;;;14.07;10.50;;;;;;;;;;5010624;28;93502;-69
2022/03/12 00:45:39;;;;;;;15.32;11.18;;;;;;;;;;5013114;28;95104;-69
2022/03/12 00:48:06;;;;;;;15.80;10.40;;;;;;;;;;5011860;28;94419;-69
2022/03/12 00:50:53;;;;;;;15.20;10.13;;;;;;;;;;5012781;28;92490;-69
2022/03/12 00:53:19;;;;;;;12.52;9.63;;;;;;;;;;5012230;28;95136;-69
2022/03/12 00:55:46;;;;;;;13.20;10.50;;;;;;;;;;5012227;28;93999;-69
2022/03/12 00:58:12;;;;;;;15.80;9.20;;;;;;;;;;5012211;28;92478;-69
2022/03/12 01:00:38;;;;;;;11.77;10.10;;;;;;;;;;5013442;28;93136;-69
2022/03/12 01:03:05;;;;;;;13.23;10.00;;;;;;;;;;5011655;28;92705;-69
2022/03/12 01:05:46;;;;;;;13.93;10.15;;;;;;;;;;5011761;28;92566;-69
2022/03/12 01:08:12;;;;;;;14.48;10.48;;;;;;;;;;5015098;28;94037;-69
2022/03/12 01:10:38;;;;;;;14.52;10.45;;;;;;;;;;5009718;28;94881;-69
2022/03/12 01:13:05;;;;;;;18.50;10.85;;;;;;;;;;5012330;28;96797;-69
2022/03/12 01:15:32;;;;;;;12.45;9.95;;;;;;;;;;5011852;28;94551;-69
2022/03/12 01:17:59;;;;;;;20.13;10.38;;;;;;;;;;5012542;28;92695;-69
2022/03/12 01:20:25;;;;;;;13.73;10.13;;;;;;;;;;5011877;28;93878;-69
2022/03/12 01:22:52;;;;;;;12.55;9.63;;;;;;;;;;5012073;28;93555;-69
2022/03/12 01:25:18;;;;;;;17.77;10.38;;;;;;;;;;5012279;28;92502;-69
2022/03/12 01:27:45;;;;;;;12.75;10.30;;;;;;;;;;5013084;28;93891;-69
2022/03/12 01:30:12;;;;;;;20.52;10.38;;;;;;;;;;5014413;28;93501;-69
2022/03/12 01:32:39;;;;;;;24.48;10.43;;;;;;;;;;5012480;28;93263;-69
2022/03/12 01:35:06;;;;;;;16.20;10.30;;;;;;;;;;5010542;28;95565;-69
2022/03/12 01:37:32;;;;;;;16.85;11.35;;;;;;;;;;5011101;28;93168;-69
2022/03/12 01:39:59;;;;;;;13.90;9.80;;;;;;;;;;5012247;28;92930;-69
2022/03/12 01:42:27;;;;;;;13.30;9.90;;;;;;;;;;5012011;28;94271;-70
2022/03/12 01:44:54;;;;;;;11.43;10.23;;;;;;;;;;5011951;28;93261;-69
2022/03/12 01:47:22;;;;;;;14.35;10.57;;;;;;;;;;5012017;28;93972;-69
2022/03/12 01:49:51;;;;;;;19.35;11.60;;;;;;;;;;5011473;28;92478;-69
2022/03/12 01:52:20;;;;;;;17.50;10.43;;;;;;;;;;5014414;28;92196;-69
2022/03/12 01:54:47;;;;;;;18.70;11.38;;;;;;;;;;5011870;28;93277;-69
2022/03/12 01:57:13;;;;;;;14.02;11.52;;;;;;;;;;5012797;28;93825;-69
2022/03/12 01:59:39;;;;;;;15.18;10.93;;;;;;;;;;5013085;28;94873;-69
2022/03/12 02:02:12;;;;;;;17.80;11.30;;;;;;;;;;5014768;28;94295;-69
2022/03/12 02:04:39;;;;;;;20.55;11.40;;;;;;;;;;5015212;28;93614;-69
2022/03/12 02:07:06;;;;;;;27.70;11.60;;;;;;;;;;5014588;28;93995;-69
2022/03/12 02:09:32;;;;;;;17.17;10.55;;;;;;;;;;5014754;28;94341;-69
2022/03/12 02:11:58;;;;;;;17.67;12.60;;;;;;;;;;5014739;28;92478;-69
2022/03/12 02:14:26;;;;;;;23.17;13.20;;;;;;;;;;5017284;28;94196;-69
2022/03/12 02:17:00;;;;;;;15.93;11.88;;;;;;;;;;5015174;28;92771;-69
2022/03/12 02:19:27;;;;;;;18.83;12.20;;;;;;;;;;5014536;28;92782;-69
2022/03/12 02:21:58;;;;;;;14.82;12.07;;;;;;;;;;5014748;28;92594;-69
2022/03/12 02:24:26;;;;;;;15.68;12.98;;;;;;;;;;5012576;28;94888;-69
2022/03/12 02:26:53;;;;;;;18.77;12.02;;;;;;;;;;5013735;28;96577;-69
2022/03/12 02:29:22;;;;;;;19.65;13.65;;;;;;;;;;5012168;28;93465;-70
2022/03/12 02:31:58;;;;;;;20.73;13.02;;;;;;;;;;5013347;28;92611;-69
2022/03/12 02:34:30;;;;;;;15.00;12.10;;;;;;;;;;5016947;28;94068;-69
2022/03/12 02:36:57;;;;;;;18.30;13.00;;;;;;;;;;5015696;28;92491;-69
2022/03/12 02:39:26;;;;;;;20.30;13.07;;;;;;;;;;5014910;28;93111;-69
2022/03/12 02:41:53;;;;;;;15.02;12.32;;;;;;;;;;4995225;28;92333;-69
2022/03/12 02:44:22;;;;;;;15.10;12.55;;;;;;;;;;5002924;28;93087;-69
2022/03/12 02:47:10;;;;;;;17.30;12.68;;;;;;;;;;5014930;28;93837;-69
2022/03/12 02:49:38;;;;;;;14.57;11.27;;;;;;;;;;5012152;28;96719;-69
2022/03/12 02:52:05;;;;;;;18.00;14.60;;;;;;;;;;5014682;28;92406;-69
2022/03/12 02:54:31;;;;;;;19.77;12.07;;;;;;;;;;5013367;28;94062;-69
2022/03/12 02:57:01;;;;;;;16.88;12.55;;;;;;;;;;5017187;28;94146;-69
2022/03/12 02:59:28;;;;;;;15.55;13.77;;;;;;;;;;5014218;28;92988;-69
2022/03/12 03:02:00;;;;;;;16.75;12.43;;;;;;;;;;5012581;28;93688;-70
2022/03/12 03:04:26;;;;;;;21.20;12.70;;;;;;;;;;5014213;28;92507;-69
2022/03/12 03:06:53;;;;;;;16.85;12.52;;;;;;;;;;5014493;28;93967;-69
2022/03/12 03:09:19;;;;;;;21.30;12.77;;;;;;;;;;5013201;28;93549;-69
2022/03/12 03:11:46;;;;;;;15.02;12.73;;;;;;;;;;5013930;28;93801;-69
2022/03/12 03:14:15;;;;;;;19.15;13.07;;;;;;;;;;5012787;28;94810;-69
2022/03/12 03:16:43;;;;;;;17.40;13.20;;;;;;;;;;5013309;28;93240;-69
2022/03/12 03:19:14;;;;;;;24.98;12.93;;;;;;;;;;5016950;28;92850;-69
2022/03/12 03:21:40;;;;;;;19.33;13.65;;;;;;;;;;5013726;28;93981;-69
2022/03/12 03:24:07;;;;;;;15.57;11.75;;;;;;;;;;5013541;28;92455;-69
2022/03/12 03:26:33;;;;;;;26.90;12.13;;;;;;;;;;5013773;28;92486;-69
2022/03/12 03:29:00;;;;;;;18.08;12.13;;;;;;;;;;5013576;28;93403;-69
2022/03/12 03:31:26;;;;;;;21.30;12.60;;;;;;;;;;5013085;28;91699;-68
2022/03/12 03:33:53;;;;;;;15.13;12.60;;;;;;;;;;5014234;28;92411;-68
2022/03/12 03:36:19;;;;;;;20.02;13.52;;;;;;;;;;5013591;28;93953;-68
2022/03/12 03:38:46;;;;;;;15.50;12.13;;;;;;;;;;5011238;28;95891;-68
2022/03/12 03:41:12;;;;;;;18.88;13.10;;;;;;;;;;5016056;28;96461;-68
2022/03/12 03:43:38;;;;;;;18.02;12.82;;;;;;;;;;5012979;28;92978;-68
2022/03/12 03:46:05;;;;;;;16.92;11.80;;;;;;;;;;5013844;28;92928;-69
2022/03/12 03:48:37;;;;;;;15.82;12.10;;;;;;;;;;5012824;28;93992;-69
2022/03/12 03:51:04;;;;;;;22.73;12.73;;;;;;;;;;5013294;28;92459;-68
2022/03/12 03:53:30;;;;;;;21.48;12.18;;;;;;;;;;5012916;28;94009;-68
2022/03/12 03:55:59;;;;;;;28.10;13.00;;;;;;;;;;5014174;28;93488;-68
2022/03/12 03:58:26;;;;;;;14.75;12.27;;;;;;;;;;5012013;28;92558;-68
2022/03/12 04:00:58;;;;;;;14.85;11.30;;;;;;;;;;5013543;27;93061;-68
2022/03/12 04:03:34;;;;;;;16.02;12.27;;;;;;;;;;5014166;28;95755;-68
2022/03/12 04:06:02;;;;;;;17.08;10.40;;;;;;;;;;5012810;28;96507;-68
2022/03/12 04:08:29;;;;;;;15.68;12.75;;;;;;;;;;5012464;28;94261;-70
2022/03/12 04:10:55;;;;;;;14.60;12.90;;;;;;;;;;5013723;28;92564;-68
2022/03/12 04:13:22;;;;;;;15.68;11.30;;;;;;;;;;5012113;28;93680;-68
2022/03/12 04:15:49;;;;;;;15.85;11.20;;;;;;;;;;5013039;28;94171;-69
2022/03/12 04:18:16;;;;;;;22.75;11.82;;;;;;;;;;5013165;28;92535;-68
2022/03/12 04:20:47;;;;;;;15.68;13.10;;;;;;;;;;5012003;28;93989;-69
2022/03/12 04:23:18;;;;;;;19.40;11.60;;;;;;;;;;5012807;28;93571;-68
2022/03/12 04:25:45;;;;;;;12.77;10.57;;;;;;;;;;5015440;28;92465;-68
2022/03/12 04:28:12;;;;;;;13.05;11.23;;;;;;;;;;5010871;28;97142;-68
2022/03/12 04:30:39;;;;;;;19.08;12.60;;;;;;;;;;5013151;28;92903;-68
2022/03/12 04:33:08;;;;;;;22.23;13.80;;;;;;;;;;5012183;28;93254;-68
2022/03/12 04:35:35;;;;;;;13.98;11.90;;;;;;;;;;5012617;28;94175;-68
2022/03/12 04:38:01;;;;;;;19.70;12.88;;;;;;;;;;5012910;28;92471;-68
2022/03/12 04:40:28;;;;;;;15.27;11.43;;;;;;;;;;5011668;28;93130;-68
2022/03/12 04:42:55;;;;;;;13.55;11.90;;;;;;;;;;5032800;28;94249;-68
2022/03/12 04:45:24;;;;;;;17.00;11.20;;;;;;;;;;5036369;28;92754;-69
2022/03/12 04:47:51;;;;;;;17.33;11.00;;;;;;;;;;5011617;27;93561;-68
2022/03/12 04:50:18;;;;;;;17.95;13.02;;;;;;;;;;5012564;28;92489;-68
2022/03/12 04:52:46;;;;;;;22.48;11.05;;;;;;;;;;5010805;28;94867;-68
2022/03/12 04:55:14;;;;;;;12.93;11.35;;;;;;;;;;5011664;28;93233;-68
2022/03/12 04:57:40;;;;;;;18.17;12.40;;;;;;;;;;5012875;28;92548;-68
2022/03/12 05:00:09;;;;;;;15.07;12.57;;;;;;;;;;5012381;28;94026;-68
2022/03/12 05:02:39;;;;;;;15.30;11.55;;;;;;;;;;5011142;28;93159;-69
2022/03/12 05:05:06;;;;;;;14.20;12.45;;;;;;;;;;5012214;28;92673;-69
2022/03/12 05:07:33;;;;;;;13.30;11.88;;;;;;;;;;5015213;28;94049;-68
2022/03/12 05:09:59;;;;;;;13.80;11.70;;;;;;;;;;5012449;28;92036;-68
2022/03/12 05:12:26;;;;;;;21.52;13.15;;;;;;;;;;5011388;28;93291;-68
2022/03/12 05:14:54;;;;;;;13.35;11.98;;;;;;;;;;5012244;28;94595;-68
2022/03/12 05:17:24;;;;;;;13.88;12.45;;;;;;;;;;5009909;28;94928;-68
2022/03/12 05:19:51;;;;;;;17.42;12.85;;;;;;;;;;5011974;28;96406;-68
2022/03/12 05:22:17;;;;;;;13.02;11.68;;;;;;;;;;5011051;28;94186;-68
2022/03/12 05:24:43;;;;;;;15.13;12.85;;;;;;;;;;5012144;28;92492;-68
2022/03/12 05:27:14;;;;;;;11.95;10.57;;;;;;;;;;5011937;28;93281;-68
2022/03/12 05:29:41;;;;;;;13.63;11.52;;;;;;;;;;5014403;28;93599;-68
2022/03/12 05:32:12;;;;;;;15.93;12.52;;;;;;;;;;5010925;28;94024;-69
2022/03/12 05:34:39;;;;;;;15.40;12.32;;;;;;;;;;5012280;28;93408;-68
2022/03/12 05:37:08;;;;;;;19.15;12.10;;;;;;;;;;5011516;28;93120;-67
2022/03/12 05:39:35;;;;;;;14.65;11.50;;;;;;;;;;5012371;28;93333;-68
2022/03/12 05:42:05;;;;;;;12.70;11.43;;;;;;;;;;5010102;28;95958;-68
2022/03/12 05:44:36;;;;;;;15.35;11.52;;;;;;;;;;5011846;28;92434;-68
2022/03/12 05:47:03;;;;;;;14.05;11.18;;;;;;;;;;5012416;28;94150;-68
2022/03/12 05:49:30;;;;;;;14.48;11.88;;;;;;;;;;5012224;28;93266;-68
2022/03/12 05:51:56;;;;;;;12.55;11.25;;;;;;;;;;5017025;28;92479;-68
2022/03/12 05:54:23;;;;;;;20.00;12.20;;;;;;;;;;5011633;28;93624;-68
2022/03/12 05:56:50;;;;;;;28.10;12.43;;;;;;;;;;5011573;28;92512;-68
2022/03/12 05:59:17;;;;;;;19.85;11.73;;;;;;;;;;5011521;28;94060;-68
2022/03/12 06:01:43;;;;;;;13.20;11.80;;;;;;;;;;5011214;28;94348;-68
2022/03/12 06:04:11;;;;;;;15.57;11.55;;;;;;;;;;5011516;28;93338;-69
2022/03/12 06:06:38;;;;;;;12.52;11.23;;;;;;;;;;5009646;28;95249;-68
2022/03/12 06:09:07;;;;;;;17.27;12.57;;;;;;;;;;5011430;28;94244;-68
2022/03/12 06:11:37;;;;;;;14.25;11.40;;;;;;;;;;5009743;28;94737;-68
2022/03/12 06:14:04;;;;;;;13.90;11.30;;;;;;;;;;5012945;28;93075;-68
2022/03/12 06:16:32;;;;;;;12.95;11.50;;;;;;;;;;5000257;28;94203;-69
2022/03/12 06:18:58;;;;;;;14.35;12.18;;;;;;;;;;5008297;28;93932;-68
2022/03/12 06:21:24;;;;;;;13.32;11.93;;;;;;;;;;5011506;28;93498;-68
2022/03/12 06:23:54;;;;;;;13.45;11.80;;;;;;;;;;5012040;28;91687;-69
2022/03/12 06:26:25;;;;;;;14.80;11.52;;;;;;;;;;5013110;28;93260;-68
2022/03/12 06:28:51;;;;;;;13.50;10.57;;;;;;;;;;5010323;28;94040;-69
2022/03/12 06:31:19;;;;;;;14.88;11.70;;;;;;;;;;5009525;28;95042;-68
2022/03/12 06:33:45;;;;;;;16.77;11.20;;;;;;;;;;5014233;28;95327;-68
2022/03/12 06:36:13;;;;;;;13.90;11.75;;;;;;;;;;5011249;28;92483;-68
2022/03/12 06:38:39;;;;;;;15.32;11.55;;;;;;;;;;5012047;27;92951;-68
2022/03/12 06:41:06;;;;;;;16.05;11.32;;;;;;;;;;5011292;27;93758;-68
2022/03/12 06:43:33;;;;;;;13.90;11.20;;;;;;;;;;5013545;28;92486;-68
2022/03/12 06:46:01;;;;;;;16.25;12.07;;;;;;;;;;5014834;28;94312;-68
2022/03/12 06:48:29;;;;;;;12.85;10.65;;;;;;;;;;5014386;28;93550;-68
2022/03/12 06:50:55;;;;;;;12.60;10.90;;;;;;;;;;5015717;27;92779;-68
2022/03/12 06:53:22;;;;;;;11.57;10.38;;;;;;;;;;5014348;28;93932;-69
2022/03/12 06:55:49;;;;;;;13.32;11.13;;;;;;;;;;5015431;28;96536;-68
2022/03/12 06:58:15;;;;;;;13.63;8.50;;;;;;;;;;5014160;28;96579;-68
2022/03/12 07:00:42;;;;;;;12.95;10.95;;;;;;;;;;5014587;28;93207;-68
2022/03/12 07:03:08;;;;;;;12.35;10.73;;;;;;;;;;5013785;27;92377;-68
2022/03/12 07:05:35;;;;;;;11.65;10.55;;;;;;;;;;5014783;28;93224;-68
2022/03/12 07:08:01;;;;;;;11.75;10.55;;;;;;;;;;5013568;28;94460;-68
2022/03/12 07:10:29;;;;;;;13.23;9.55;;;;;;;;;;5014156;28;92450;-68
2022/03/12 07:12:55;;;;;;;12.27;9.90;;;;;;;;;;5015289;28;93893;-68
2022/03/12 07:15:22;;;;;;;10.98;9.63;;;;;;;;;;5014283;28;93458;-68
2022/03/12 07:17:48;;;;;;;12.50;9.90;;;;;;;;;;5017237;28;92431;-68
2022/03/12 07:20:15;;;;;;;12.15;10.20;;;;;;;;;;5012840;28;96899;-68
2022/03/12 07:22:42;;;;;;;16.02;9.40;;;;;;;;;;5014128;28;92924;-68
2022/03/12 07:25:08;;;;;;;11.18;9.98;;;;;;;;;;5015367;28;93207;-68
2022/03/12 07:27:35;;;;;;;10.75;9.60;;;;;;;;;;5014059;28;94112;-68
2022/03/12 07:30:02;;;;;;;11.65;9.75;;;;;;;;;;5014558;28;92470;-68
2022/03/12 07:32:28;;;;;;;11.90;9.52;;;;;;;;;;5014688;28;94029;-68
2022/03/12 07:34:55;;;;;;;11.65;9.80;;;;;;;;;;5014388;28;94315;-69
2022/03/12 07:37:21;;;;;;;11.63;9.80;;;;;;;;;;5018720;28;91868;-69
2022/03/12 07:39:49;;;;;;;10.77;9.68;;;;;;;;;;5017603;28;93137;-68
2022/03/12 07:42:15;;;;;;;10.27;9.27;;;;;;;;;;5014973;28;92998;-68
2022/03/12 07:44:41;;;;;;;13.05;9.68;;;;;;;;;;5013122;28;95147;-69
2022/03/12 07:47:08;;;;;;;11.93;10.68;;;;;;;;;;5014655;28;94253;-69
2022/03/12 07:49:35;;;;;;;12.57;9.00;;;;;;;;;;5014651;27;92420;-69
2022/03/12 07:52:02;;;;;;;9.57;8.60;;;;;;;;;;5014368;28;92959;-68
2022/03/12 07:54:30;;;;;;;10.13;9.15;;;;;;;;;;5012953;28;94114;-68
2022/03/12 07:56:56;;;;;;;13.32;9.52;;;;;;;;;;5013936;28;92416;-68
2022/03/12 07:59:22;;;;;;;10.98;9.95;;;;;;;;;;5014252;28;93915;-68
2022/03/12 08:01:49;;;;;;;11.07;9.10;;;;;;;;;;5017811;28;92848;-68
2022/03/12 08:04:15;;;;;;;9.95;8.85;;;;;;;;;;5014004;28;92532;-68
2022/03/12 08:06:42;;;;;;;7.13;5.78;;;;;;;;;;5014546;28;93336;-68
2022/03/12 08:09:09;;;;;;;10.02;9.02;;;;;;;;;;5012974;28;95515;-68
2022/03/12 08:11:36;;;;;;;10.25;9.30;;;;;;;;;;5013932;28;96309;-68
2022/03/12 08:14:05;;;;;;;13.85;8.98;;;;;;;;;;5034479;27;93756;-68
2022/03/12 08:16:33;;;;;;;12.07;7.85;;;;;;;;;;5034403;27;92425;-68
2022/03/12 08:19:01;;;;;;;10.63;8.65;;;;;;;;;;5033554;27;93996;-68
2022/03/12 08:21:27;;;;;;;9.93;8.45;;;;;;;;;;5033906;27;93430;-68
2022/03/12 08:23:53;;;;;;;13.20;9.18;;;;;;;;;;5037338;28;92448;-68
2022/03/12 08:26:20;;;;;;;9.50;8.60;;;;;;;;;;5033867;27;92722;-69
2022/03/12 08:28:47;;;;;;;9.98;8.80;;;;;;;;;;5034629;27;92429;-68
2022/03/12 08:31:14;;;;;;;8.88;7.90;;;;;;;;;;5034355;27;93241;-69
2022/03/12 08:33:41;;;;;;;12.05;8.45;;;;;;;;;;5031744;27;95581;-68
2022/03/12 08:36:07;;;;;;;10.88;8.63;;;;;;;;;;5034175;27;92477;-68
2022/03/12 08:38:35;;;;;;;11.75;8.82;;;;;;;;;;5033947;27;93039;-68
2022/03/12 08:41:02;;;;;;;16.63;8.77;;;;;;;;;;5033657;27;93353;-68
2022/03/12 08:43:29;;;;;;;11.27;8.27;;;;;;;;;;5036998;28;94077;-69
2022/03/12 08:45:55;;;;;;;11.18;7.88;;;;;;;;;;5033905;27;93278;-69
2022/03/12 08:48:21;;;;;;;8.98;7.63;;;;;;;;;;5033412;27;92428;-69
2022/03/12 08:50:48;;;;;;;7.55;6.68;;;;;;;;;;5034126;28;93924;-69
2022/03/12 08:53:16;;;;;;;8.60;7.70;;;;;;;;;;5032823;27;93499;-69
2022/03/12 08:55:42;;;;;;;8.48;6.78;;;;;;;;;;5033765;27;92941;-70
2022/03/12 08:58:09;;;;;;;8.18;7.30;;;;;;;;;;5032058;27;94821;-69
2022/03/12 09:00:37;;;;;;;11.70;6.88;;;;;;;;;;5032858;28;94207;-69
2022/03/12 09:03:05;;;;;;;8.82;6.70;;;;;;;;;;5033017;27;92506;-70
2022/03/12 09:05:31;;;;;;;7.28;6.28;;;;;;;;;;5034848;27;92828;-69
2022/03/12 09:07:58;;;;;;;8.73;6.47;;;;;;;;;;5031669;27;92832;-68
2022/03/12 09:10:25;;;;;;;9.23;6.10;;;;;;;;;;5031264;28;94172;-68
2022/03/12 09:12:51;;;;;;;7.25;6.43;;;;;;;;;;5020229;27;93565;-68
2022/03/12 09:15:21;;;;;;;10.60;6.50;;;;;;;;;;5013288;28;91685;-68
2022/03/12 09:17:47;;;;;;;8.52;7.55;;;;;;;;;;5012589;28;93360;-68
2022/03/12 09:20:14;;;;;;;13.45;7.13;;;;;;;;;;5012813;28;94529;-68
2022/03/12 09:22:41;;;;;;;8.55;5.60;;;;;;;;;;5009570;28;94986;-68
2022/03/12 09:25:11;;;;;;;6.53;5.90;;;;;;;;;;5013047;28;96468;-68
2022/03/12 09:27:38;;;;;;;7.32;6.13;;;;;;;;;;5015138;28;94649;-68
2022/03/12 09:30:04;;;;;;;6.90;6.22;;;;;;;;;;5007621;28;95007;-68
2022/03/12 09:32:31;;;;;;;6.68;5.93;;;;;;;;;;5006164;28;92435;-68
2022/03/12 09:34:58;;;;;;;8.63;6.30;;;;;;;;;;5005430;28;93444;-68
2022/03/12 09:37:24;;;;;;;8.80;6.32;;;;;;;;;;5010543;28;93925;-68
2022/03/12 09:39:51;;;;;;;11.98;6.07;;;;;;;;;;5010539;28;93097;-68
2022/03/12 09:42:18;;;;;;;6.32;5.68;;;;;;;;;;5012008;28;92488;-68
2022/03/12 09:44:44;;;;;;;5.60;5.00;;;;;;;;;;5012563;28;94556;-68
2022/03/12 09:47:12;;;;;;;14.57;5.22;;;;;;;;;;5010810;28;96599;-68
2022/03/12 09:49:38;;;;;;;5.15;4.68;;;;;;;;;;5012860;28;92916;-69
2022/03/12 09:52:05;;;;;;;12.48;5.40;;;;;;;;;;5013195;28;94159;-68
2022/03/12 09:54:31;;;;;;;7.95;5.53;;;;;;;;;;5007698;28;94635;-69
2022/03/12 09:56:58;;;;;;;5.90;4.97;;;;;;;;;;5006833;28;95129;-68
2022/03/12 09:59:24;;;;;;;8.82;5.35;;;;;;;;;;5009669;28;93073;-68
2022/03/12 10:01:50;;;;;;;5.70;5.20;;;;;;;;;;5010627;28;92508;-69
2022/03/12 10:04:17;;;;;;;5.95;5.20;;;;;;;;;;5011702;28;93060;-68
2022/03/12 10:06:44;;;;;;;5.55;4.70;;;;;;;;;;5010995;28;94204;-68
2022/03/12 10:09:10;;;;;;;12.75;4.97;;;;;;;;;;5010997;27;93786;-69
2022/03/12 10:11:36;;;;;;;6.40;5.18;;;;;;;;;;5011082;27;94849;-68
2022/03/12 10:14:03;;;;;;;13.07;4.90;;;;;;;;;;5002988;28;93901;-68
2022/03/12 10:16:32;;;;;;;6.05;4.53;;;;;;;;;;5014544;27;92782;-68
2022/03/12 10:18:59;;;;;;;6.15;5.43;;;;;;;;;;5012859;28;93911;-68
2022/03/12 10:21:26;;;;;;;11.25;6.20;;;;;;;;;;5013646;28;92565;-69
2022/03/12 10:23:52;;;;;;;9.45;5.13;;;;;;;;;;5013492;28;93966;-69
2022/03/12 10:26:18;;;;;;;7.95;5.45;;;;;;;;;;5011391;28;96328;-70
2022/03/12 10:28:45;;;;;;;8.45;4.90;;;;;;;;;;5015562;28;91775;-68
2022/03/12 10:31:12;;;;;;;10.38;5.78;;;;;;;;;;5013391;28;93360;-68
2022/03/12 10:33:39;;;;;;;5.97;5.38;;;;;;;;;;5016872;28;93398;-68
2022/03/12 10:36:13;;;;;;;8.65;5.88;;;;;;;;;;5013521;28;94976;-68
2022/03/12 10:38:43;;;;;;;7.05;5.70;;;;;;;;;;5008928;28;93265;-68
2022/03/12 10:41:10;;;;;;;10.98;5.22;;;;;;;;;;5008635;28;92512;-68
2022/03/12 10:43:50;;;;;;;7.28;5.70;;;;;;;;;;5015004;28;93119;-68
2022/03/12 10:46:21;;;;;;;6.15;5.32;;;;;;;;;;5012952;28;93389;-69
2022/03/12 10:48:54;;;;;;;6.45;5.85;;;;;;;;;;5014802;28;92561;-69
2022/03/12 10:51:32;;;;;;;10.60;5.75;;;;;;;;;;5015739;28;93379;-69
2022/03/12 10:54:04;;;;;;;6.82;5.68;;;;;;;;;;5014557;28;93845;-69
2022/03/12 10:56:57;;;;;;;8.60;5.55;;;;;;;;;;5014634;28;92838;-69
2022/03/12 10:59:25;;;;;;;13.68;5.55;;;;;;;;;;5009489;28;93942;-69
2022/03/12 11:02:02;;;;;;;6.07;5.25;;;;;;;;;;5001190;28;95369;-69
2022/03/12 11:04:30;;;;;;;8.63;6.40;;;;;;;;;;5015165;28;96334;-69
2022/03/12 11:06:57;;;;;;;9.13;5.95;;;;;;;;;;5014080;28;93400;-69
2022/03/12 11:09:34;;;;;;;5.80;5.30;;;;;;;;;;5015197;28;92993;-69
2022/03/12 11:12:02;;;;;;;6.78;4.82;;;;;;;;;;5014488;28;94649;-69
2022/03/12 11:14:31;;;;;;;5.18;4.30;;;;;;;;;;5014007;28;94103;-69
2022/03/12 11:16:58;;;;;;;5.40;4.28;;;;;;;;;;5016670;28;92685;-69
2022/03/12 11:19:41;;;;;;;6.32;4.20;;;;;;;;;;5013949;28;92697;-69
2022/03/12 11:22:12;;;;;;;9.98;3.90;;;;;;;;;;5013696;28;92704;-69
2022/03/12 11:24:48;;;;;;;6.38;3.28;;;;;;;;;;5013668;28;93973;-69
2022/03/12 11:27:19;;;;;;;9.32;2.88;;;;;;;;;;5012999;28;96152;-69
2022/03/12 11:29:54;;;;;;;11.35;3.30;;;;;;;;;;5013500;28;92912;-69
2022/03/12 11:32:21;;;;;;;5.07;2.47;;;;;;;;;;5014623;28;93344;-70
2022/03/12 11:34:47;;;;;;;11.73;3.10;;;;;;;;;;5012702;28;94800;-69
2022/03/12 11:37:14;;;;;;;8.73;3.42;;;;;;;;;;5014398;28;93510;-69
2022/03/12 11:39:46;;;;;;;9.60;3.67;;;;;;;;;;5014645;28;93960;-69
2022/03/12 11:42:17;;;;;;;9.68;3.65;;;;;;;;;;5013577;28;92513;-69
2022/03/12 11:44:47;;;;;;;7.22;3.22;;;;;;;;;;5013037;28;93235;-69
2022/03/12 11:47:15;;;;;;;9.07;2.63;;;;;;;;;;5011680;28;94038;-69
2022/03/12 11:49:42;;;;;;;9.25;3.47;;;;;;;;;;5009086;28;92884;-70
2022/03/12 11:52:08;;;;;;;9.25;3.10;;;;;;;;;;5011299;28;95871;-69
2022/03/12 11:54:40;;;;;;;5.13;3.00;;;;;;;;;;5014560;28;93349;-69
2022/03/12 11:57:10;;;;;;;7.82;2.83;;;;;;;;;;5011571;28;92534;-69
2022/03/12 11:59:37;;;;;;;3.53;2.75;;;;;;;;;;5014536;28;93954;-69
2022/03/12 12:02:19;;;;;;;;;;;;;;;;;;5016449;28;93147;-69
2022/03/12 12:04:45;;;;;;;4.97;2.60;;;;;;;;;;5014245;28;122497;-69
2022/03/12 12:07:13;;;;;;;8.13;3.00;;;;;;;;;;5011452;27;93332;-70
2022/03/12 12:09:39;;;;;;;6.18;4.07;;;;;;;;;;5014294;28;91845;-69
2022/03/12 12:12:11;;;;;;;10.68;3.05;;;;;;;;;;5011874;28;93295;-69
2022/03/12 12:14:38;;;;;;;8.37;2.83;;;;;;;;;;5014210;28;94021;-69
2022/03/12 12:17:04;;;;;;;6.35;3.33;;;;;;;;;;5011503;28;94861;-69
2022/03/12 12:19:31;;;;;;;4.90;3.15;;;;;;;;;;5014370;28;95151;-69
2022/03/12 12:21:58;;;;;;;3.88;2.47;;;;;;;;;;5012726;28;93520;-69
2022/03/12 12:24:25;;;;;;;5.75;2.55;;;;;;;;;;5016269;28;92525;-69
2022/03/12 12:26:58;;;;;;;4.93;2.70;;;;;;;;;;5012454;28;93287;-69
2022/03/12 12:29:47;;;;;;;7.88;3.00;;;;;;;;;;5007844;28;92506;-68
2022/03/12 12:32:16;;;;;;;7.05;2.88;;;;;;;;;;5012682;28;94058;-68
2022/03/12 12:34:57;;;;;;;5.05;3.17;;;;;;;;;;5014781;28;92502;-69
2022/03/12 12:37:43;;;;;;;7.00;3.00;;;;;;;;;;5013377;28;93906;-69
2022/03/12 12:40:27;;;;;;;5.70;3.13;;;;;;;;;;5010752;28;93578;-68
2022/03/12 12:42:56;;;;;;;6.50;2.92;;;;;;;;;;5010532;28;97342;-70
2022/03/12 12:45:27;;;;;;;6.03;3.13;;;;;;;;;;5012313;28;92476;-68
2022/03/12 12:48:14;;;;;;;3.08;2.75;;;;;;;;;;5016824;28;92980;-68
2022/03/12 12:51:18;;;;;;;5.55;2.92;;;;;;;;;;5012979;28;92470;-68
2022/03/12 12:53:45;;;;;;;5.35;3.15;;;;;;;;;;4990340;28;93799;-68
2022/03/12 12:56:18;;;;;;;6.93;3.40;;;;;;;;;;5007011;28;93859;-68
2022/03/12 12:58:54;;;;;;;3.83;3.15;;;;;;;;;;5012858;28;92470;-68
2022/03/12 13:01:22;;;;;;;5.63;3.20;;;;;;;;;;5010830;28;94046;-68
2022/03/12 13:03:50;;;;;;;4.05;3.10;;;;;;;;;;5011006;28;93649;-68
2022/03/12 13:06:35;;;;;;;7.30;3.03;;;;;;;;;;5012278;28;92829;-68
2022/03/12 13:09:08;;;;;;;4.22;3.17;;;;;;;;;;5011150;28;96274;-68
2022/03/12 13:11:35;;;;;;;4.93;3.05;;;;;;;;;;5012462;28;92950;-68
2022/03/12 13:14:06;;;;;;;5.70;3.00;;;;;;;;;;5012604;28;92954;-69
2022/03/12 13:17:00;;;;;;;21.83;3.38;;;;;;;;;;5010721;28;93335;-69
2022/03/12 13:19:33;;;;;;;7.35;3.58;;;;;;;;;;5010660;28;92652;-69
2022/03/12 13:21:59;;;;;;;7.32;2.80;;;;;;;;;;5011701;28;93148;-69
2022/03/12 13:24:30;;;;;;;4.80;3.05;;;;;;;;;;5013171;28;94186;-69
2022/03/12 13:27:00;;;;;;;3.25;2.95;;;;;;;;;;5012698;28;91791;-69
2022/03/12 13:29:27;;;;;;;7.05;3.08;;;;;;;;;;5010387;27;92588;-69
2022/03/12 13:31:56;;;;;;;6.70;3.55;;;;;;;;;;5015867;28;94141;-69
2022/03/12 13:34:23;;;;;;;6.35;3.10;;;;;;;;;;5010569;28;96405;-70
2022/03/12 13:36:54;;;;;;;11.05;3.38;;;;;;;;;;5010141;28;94954;-69
2022/03/12 13:39:21;;;;;;;4.68;3.22;;;;;;;;;;5011651;28;92451;-69
2022/03/12 13:41:48;;;;;;;5.28;2.85;;;;;;;;;;5008144;28;92960;-69
2022/03/12 13:44:16;;;;;;;9.18;3.00;;;;;;;;;;5000775;28;94151;-69
2022/03/12 13:46:43;;;;;;;5.68;3.20;;;;;;;;;;5002726;28;92537;-69
2022/03/12 13:49:11;;;;;;;4.60;2.65;;;;;;;;;;5005518;28;94644;-69
2022/03/12 13:51:39;;;;;;;3.97;2.30;;;;;;;;;;5012038;28;92577;-69
2022/03/12 13:54:07;;;;;;;5.57;3.10;;;;;;;;;;5019308;28;93330;-69
2022/03/12 13:56:35;;;;;;;12.25;3.10;;;;;;;;;;5012483;28;94003;-69
2022/03/12 13:59:03;;;;;;;7.28;2.70;;;;;;;;;;5011330;28;96733;-70
2022/03/12 14:01:35;;;;;;;6.80;3.42;;;;;;;;;;5016154;28;97532;-70
2022/03/12 14:04:03;;;;;;;6.53;2.70;;;;;;;;;;5015279;28;93717;-69
2022/03/12 14:06:34;;;;;;;5.80;2.35;;;;;;;;;;5016278;28;92500;-70
2022/03/12 14:09:01;;;;;;;5.63;2.83;;;;;;;;;;5016259;28;94321;-69
2022/03/12 14:11:43;;;;;;;2.95;2.58;;;;;;;;;;5014757;28;93437;-70
2022/03/12 14:14:10;;;;;;;8.70;2.72;;;;;;;;;;5015988;28;92544;-70
2022/03/12 14:16:45;;;;;;;7.70;2.50;;;;;;;;;;5016994;28;94138;-70
2022/03/12 14:19:12;;;;;;;5.15;2.97;;;;;;;;;;5015566;28;92481;-70
2022/03/12 14:21:40;;;;;;;11.05;2.67;;;;;;;;;;5016282;28;94074;-70
2022/03/12 14:24:19;;;;;;;3.50;2.40;;;;;;;;;;5013295;28;96597;-70
2022/03/12 14:26:49;;;;;;;6.80;2.50;;;;;;;;;;5015960;28;92874;-70
2022/03/12 14:29:17;;;;;;;5.32;2.70;;;;;;;;;;5015798;28;93122;-70
2022/03/12 14:31:47;;;;;;;6.43;2.65;;;;;;;;;;5015467;28;93728;-71
2022/03/12 14:34:14;;;;;;;3.30;2.15;;;;;;;;;;5015430;28;92467;-70
2022/03/12 14:36:42;;;;;;;6.85;2.45;;;;;;;;;;5015391;28;93344;-70